Time;durP1;ratioP1;P1;durP2;ratioP2;P2;SDS_P1;SDS_P2;PMS_P1;PMS_P2;Temp;Humidity;BMP_temperature;BMP_pressure;BME280_temperature;BME280_humidity;BME280_pressure;Samples;Min_cycle;Max_cycle;Signal;HPM_P1;HPM_P2
2023/09/01 00:00:31;;;;;;;6.97;2.58;;;;;;;;;;5053820;28;20406;-29
2023/09/01 00:02:56;;;;;;;7.03;2.50;;;;;;;;;;5054366;28;20017;-28
2023/09/01 00:05:22;;;;;;;9.07;2.83;;;;;;;;;;5053976;28;20690;-29
2023/09/01 00:07:47;;;;;;;5.80;2.50;;;;;;;;;;5053828;28;20027;-29
2023/09/01 00:10:12;;;;;;;5.33;2.63;;;;;;;;;;5054275;28;20251;-29
2023/09/01 00:12:37;;;;;;;12.25;2.95;;;;;;;;;;5053879;28;20275;-29
2023/09/01 00:15:03;;;;;;;5.00;2.57;;;;;;;;;;5053650;28;20513;-29
2023/09/01 00:17:28;;;;;;;6.00;2.83;;;;;;;;;;5053813;28;20021;-29
2023/09/01 00:19:53;;;;;;;6.10;2.70;;;;;;;;;;5054122;28;20068;-29
2023/09/01 00:22:18;;;;;;;7.57;2.70;;;;;;;;;;5053357;28;20025;-29
2023/09/01 00:24:44;;;;;;;11.50;3.23;;;;;;;;;;5053435;28;20263;-29
2023/09/01 00:27:09;;;;;;;10.27;2.83;;;;;;;;;;5053719;28;20605;-29
2023/09/01 00:29:34;;;;;;;5.43;2.67;;;;;;;;;;5053376;28;20255;-29
2023/09/01 00:32:00;;;;;;;7.95;2.80;;;;;;;;;;5053642;28;20288;-28
2023/09/01 00:34:25;;;;;;;4.63;2.50;;;;;;;;;;5053233;28;20037;-28
2023/09/01 00:36:50;;;;;;;6.82;2.83;;;;;;;;;;5053335;28;20074;-29
2023/09/01 00:39:16;;;;;;;5.90;2.72;;;;;;;;;;5053311;28;20071;-29
2023/09/01 00:41:41;;;;;;;7.75;2.90;;;;;;;;;;5053340;28;20031;-29
2023/09/01 00:44:08;;;;;;;5.22;2.67;;;;;;;;;;5053109;28;20490;-29
2023/09/01 00:46:33;;;;;;;7.32;2.70;;;;;;;;;;5053401;28;20036;-29
2023/09/01 00:48:59;;;;;;;5.90;2.85;;;;;;;;;;5053502;28;20025;-29
2023/09/01 00:51:24;;;;;;;7.03;2.70;;;;;;;;;;5053117;28;20068;-28
2023/09/01 00:53:50;;;;;;;7.88;2.80;;;;;;;;;;5053217;28;20240;-28
2023/09/01 00:56:15;;;;;;;8.65;2.85;;;;;;;;;;5053174;28;20017;-28
2023/09/01 00:58:41;;;;;;;6.22;2.65;;;;;;;;;;5053449;28;20021;-28
2023/09/01 01:01:06;;;;;;;8.40;2.97;;;;;;;;;;5053106;28;20459;-28
2023/09/01 01:03:33;;;;;;;7.50;3.17;;;;;;;;;;5052983;28;20259;-28
2023/09/01 01:06:17;;;;;;;7.65;3.00;;;;;;;;;;5053017;28;20268;-28
2023/09/01 01:08:51;;;;;;;6.72;3.10;;;;;;;;;;5053356;28;20073;-28
2023/09/01 01:11:39;;;;;;;10.13;3.05;;;;;;;;;;5052936;28;20486;-27
2023/09/01 01:14:06;;;;;;;10.30;3.10;;;;;;;;;;5053101;28;20052;-28
2023/09/01 01:16:32;;;;;;;8.18;2.72;;;;;;;;;;5052973;28;20078;-33
2023/09/01 01:18:58;;;;;;;7.18;3.15;;;;;;;;;;5051712;28;20013;-28
2023/09/01 01:21:28;;;;;;;5.93;2.67;;;;;;;;;;5053473;28;20012;-28
2023/09/01 01:23:53;;;;;;;6.63;2.70;;;;;;;;;;5052856;28;20023;-28
2023/09/01 01:26:19;;;;;;;5.80;2.83;;;;;;;;;;5052915;28;20017;-28
2023/09/01 01:28:44;;;;;;;5.72;2.60;;;;;;;;;;5053142;28;20017;-28
2023/09/01 01:31:09;;;;;;;7.75;2.60;;;;;;;;;;5052862;28;20017;-28
2023/09/01 01:33:43;;;;;;;6.80;2.60;;;;;;;;;;5051521;28;20108;-28
2023/09/01 01:36:11;;;;;;;6.25;2.78;;;;;;;;;;5056649;28;20041;-28
2023/09/01 01:38:39;;;;;;;9.52;2.70;;;;;;;;;;5056515;28;20021;-28
2023/09/01 01:41:09;;;;;;;7.38;2.90;;;;;;;;;;5056762;28;20116;-28
2023/09/01 01:43:34;;;;;;;7.75;3.13;;;;;;;;;;5056344;28;20075;-30
2023/09/01 01:45:59;;;;;;;5.97;2.70;;;;;;;;;;5056437;28;20029;-28
2023/09/01 01:48:25;;;;;;;8.80;2.67;;;;;;;;;;5056550;28;20021;-28
2023/09/01 01:50:54;;;;;;;6.32;2.83;;;;;;;;;;5056330;28;20021;-28
2023/09/01 01:53:20;;;;;;;7.65;2.65;;;;;;;;;;5056409;28;20033;-28
2023/09/01 01:55:45;;;;;;;7.78;3.00;;;;;;;;;;5056737;28;20021;-28
2023/09/01 01:58:10;;;;;;;7.60;2.50;;;;;;;;;;5056171;28;20380;-28
2023/09/01 02:00:35;;;;;;;6.57;2.90;;;;;;;;;;5056421;28;20285;-28
2023/09/01 02:03:01;;;;;;;12.60;3.20;;;;;;;;;;5056099;28;20252;-28
2023/09/01 02:05:26;;;;;;;10.57;3.60;;;;;;;;;;5056244;28;20017;-28
2023/09/01 02:07:51;;;;;;;7.53;3.65;;;;;;;;;;5056187;28;20383;-28
2023/09/01 02:10:17;;;;;;;8.45;3.60;;;;;;;;;;5056246;28;20455;-28
2023/09/01 02:12:43;;;;;;;8.02;3.38;;;;;;;;;;5055807;28;20375;-28
2023/09/01 02:15:08;;;;;;;10.85;3.63;;;;;;;;;;5056107;28;20024;-28
2023/09/01 02:17:37;;;;;;;8.50;3.63;;;;;;;;;;5055837;28;20527;-28
2023/09/01 02:20:15;;;;;;;10.02;3.70;;;;;;;;;;5056020;28;20033;-28
2023/09/01 02:22:41;;;;;;;9.50;3.78;;;;;;;;;;5055654;28;20025;-28
2023/09/01 02:25:08;;;;;;;8.80;3.85;;;;;;;;;;5055640;28;20073;-28
2023/09/01 02:27:33;;;;;;;9.13;4.38;;;;;;;;;;5055640;28;20025;-28
2023/09/01 02:29:58;;;;;;;11.63;4.45;;;;;;;;;;5055548;28;20024;-28
2023/09/01 02:32:24;;;;;;;10.07;4.90;;;;;;;;;;5055510;28;20080;-28
2023/09/01 02:34:49;;;;;;;12.00;5.03;;;;;;;;;;5054059;28;20375;-28
2023/09/01 02:37:14;;;;;;;11.97;5.23;;;;;;;;;;5055943;28;20028;-28
2023/09/01 02:39:39;;;;;;;12.02;5.70;;;;;;;;;;5055928;28;20256;-28
2023/09/01 02:42:04;;;;;;;14.13;5.60;;;;;;;;;;5055869;28;20059;-29
2023/09/01 02:44:30;;;;;;;12.40;5.47;;;;;;;;;;5055301;28;20266;-28
2023/09/01 02:46:55;;;;;;;12.73;6.17;;;;;;;;;;5055128;28;20260;-28
2023/09/01 02:49:20;;;;;;;16.07;5.90;;;;;;;;;;5055757;28;20259;-29
2023/09/01 02:51:45;;;;;;;15.47;5.87;;;;;;;;;;5055594;28;20298;-28
2023/09/01 02:54:10;;;;;;;11.23;5.40;;;;;;;;;;5055073;28;20786;-28
2023/09/01 02:56:35;;;;;;;14.70;5.75;;;;;;;;;;5055663;28;20021;-28
2023/09/01 02:59:01;;;;;;;16.70;6.40;;;;;;;;;;5055571;28;20021;-28
2023/09/01 03:01:26;;;;;;;16.07;6.37;;;;;;;;;;5054998;28;20714;-28
2023/09/01 03:03:51;;;;;;;14.60;6.40;;;;;;;;;;5055489;28;20025;-28
2023/09/01 03:06:16;;;;;;;12.60;5.83;;;;;;;;;;5054877;28;20083;-28
2023/09/01 03:08:42;;;;;;;13.33;5.83;;;;;;;;;;5055126;28;20648;-28
2023/09/01 03:11:07;;;;;;;14.43;6.20;;;;;;;;;;5055329;28;20718;-28
2023/09/01 03:13:32;;;;;;;14.63;5.93;;;;;;;;;;5054879;28;20020;-27
2023/09/01 03:15:57;;;;;;;16.00;6.38;;;;;;;;;;5054683;28;20485;-28
2023/09/01 03:18:23;;;;;;;13.87;5.87;;;;;;;;;;5054957;28;20036;-27
2023/09/01 03:20:50;;;;;;;9.80;5.95;;;;;;;;;;5054784;28;20045;-28
2023/09/01 03:23:15;;;;;;;12.10;6.07;;;;;;;;;;5054857;28;20100;-28
2023/09/01 03:25:41;;;;;;;14.77;6.27;;;;;;;;;;5054572;28;20547;-28
2023/09/01 03:28:06;;;;;;;11.43;5.67;;;;;;;;;;5054435;28;20251;-28
2023/09/01 03:30:31;;;;;;;14.80;5.93;;;;;;;;;;5054558;28;20032;-28
2023/09/01 03:32:56;;;;;;;15.30;6.03;;;;;;;;;;5054875;28;20025;-28
2023/09/01 03:35:21;;;;;;;15.03;5.83;;;;;;;;;;5054230;28;20297;-28
2023/09/01 03:37:47;;;;;;;14.33;5.93;;;;;;;;;;5054537;28;20755;-28
2023/09/01 03:40:12;;;;;;;12.70;6.03;;;;;;;;;;5054290;28;20301;-28
2023/09/01 03:42:38;;;;;;;15.93;6.78;;;;;;;;;;5054388;28;20048;-28
2023/09/01 03:45:04;;;;;;;16.98;6.43;;;;;;;;;;5054674;28;20371;-28
2023/09/01 03:47:29;;;;;;;19.60;6.57;;;;;;;;;;5055157;28;20021;-28
2023/09/01 03:49:54;;;;;;;15.50;6.37;;;;;;;;;;5054067;28;20049;-28
2023/09/01 03:52:19;;;;;;;15.05;6.18;;;;;;;;;;5053922;28;20290;-28
2023/09/01 03:54:45;;;;;;;16.00;6.28;;;;;;;;;;5054497;28;20017;-28
2023/09/01 03:57:10;;;;;;;14.55;6.22;;;;;;;;;;5053419;28;20367;-28
2023/09/01 03:59:35;;;;;;;15.13;6.10;;;;;;;;;;5053891;28;20024;-28
2023/09/01 04:02:00;;;;;;;16.02;6.07;;;;;;;;;;5054587;28;20572;-28
2023/09/01 04:04:27;;;;;;;11.38;5.68;;;;;;;;;;5054329;28;20029;-28
2023/09/01 04:06:53;;;;;;;12.65;6.00;;;;;;;;;;5054032;28;20104;-28
2023/09/01 04:09:18;;;;;;;16.83;5.90;;;;;;;;;;5053683;28;20104;-29
2023/09/01 04:11:44;;;;;;;15.25;6.32;;;;;;;;;;5054390;28;20028;-28
2023/09/01 04:14:10;;;;;;;12.87;5.97;;;;;;;;;;5053607;28;20154;-29
2023/09/01 04:16:36;;;;;;;12.88;6.05;;;;;;;;;;5053885;28;20250;-28
2023/09/01 04:19:01;;;;;;;13.80;5.95;;;;;;;;;;5053802;28;20025;-28
2023/09/01 04:21:26;;;;;;;13.70;6.10;;;;;;;;;;5053546;28;20095;-28
2023/09/01 04:23:51;;;;;;;11.60;6.20;;;;;;;;;;5054002;28;20361;-28
2023/09/01 04:26:16;;;;;;;15.27;5.80;;;;;;;;;;5053480;28;20606;-28
2023/09/01 04:28:41;;;;;;;10.10;5.60;;;;;;;;;;5053727;28;20271;-28
2023/09/01 04:31:14;;;;;;;17.52;6.03;;;;;;;;;;5053557;28;20405;-28
2023/09/01 04:33:39;;;;;;;16.30;5.85;;;;;;;;;;5053386;28;20403;-28
2023/09/01 04:36:05;;;;;;;14.97;5.50;;;;;;;;;;5053367;28;20099;-28
2023/09/01 04:38:30;;;;;;;14.25;5.70;;;;;;;;;;5053669;28;20265;-28
2023/09/01 04:40:56;;;;;;;12.85;5.43;;;;;;;;;;5053253;28;20017;-28
2023/09/01 04:43:21;;;;;;;11.43;5.40;;;;;;;;;;5053481;28;20032;-27
2023/09/01 04:45:47;;;;;;;15.85;5.60;;;;;;;;;;5053214;28;20021;-27
2023/09/01 04:48:13;;;;;;;14.70;5.38;;;;;;;;;;5052765;28;20104;-28
2023/09/01 04:50:38;;;;;;;10.93;5.28;;;;;;;;;;5053163;28;20100;-28
2023/09/01 04:53:03;;;;;;;13.23;5.43;;;;;;;;;;5053676;28;20017;-27
2023/09/01 04:55:28;;;;;;;15.60;5.67;;;;;;;;;;5053452;28;20247;-28
2023/09/01 04:57:54;;;;;;;13.93;5.93;;;;;;;;;;5053752;28;20257;-28
2023/09/01 05:00:19;;;;;;;9.97;5.40;;;;;;;;;;5053126;28;20021;-28
2023/09/01 05:02:45;;;;;;;13.50;5.53;;;;;;;;;;5053380;28;20352;-29
2023/09/01 05:05:11;;;;;;;13.88;5.80;;;;;;;;;;5053639;28;20469;-28
2023/09/01 05:07:36;;;;;;;13.77;5.65;;;;;;;;;;5053403;28;20020;-29
2023/09/01 05:10:02;;;;;;;14.25;6.28;;;;;;;;;;5055494;28;20021;-29
2023/09/01 05:12:27;;;;;;;16.30;5.93;;;;;;;;;;5057195;28;20021;-29
2023/09/01 05:14:52;;;;;;;13.37;5.97;;;;;;;;;;5056918;28;20506;-29
2023/09/01 05:17:17;;;;;;;16.00;6.17;;;;;;;;;;5057540;28;20339;-28
2023/09/01 05:19:42;;;;;;;15.33;5.97;;;;;;;;;;5056891;28;20247;-29
2023/09/01 05:22:08;;;;;;;15.05;5.88;;;;;;;;;;5057087;28;20259;-29
2023/09/01 05:24:33;;;;;;;15.43;5.50;;;;;;;;;;5056769;28;20024;-29
2023/09/01 05:26:58;;;;;;;11.30;5.70;;;;;;;;;;5056766;28;20863;-29
2023/09/01 05:29:24;;;;;;;13.47;5.80;;;;;;;;;;5055368;28;20260;-29
2023/09/01 05:31:49;;;;;;;13.05;5.78;;;;;;;;;;5056865;28;20474;-29
2023/09/01 05:34:15;;;;;;;13.97;6.80;;;;;;;;;;5056793;28;20037;-29
2023/09/01 05:36:40;;;;;;;13.10;5.90;;;;;;;;;;5056843;28;20244;-29
2023/09/01 05:39:05;;;;;;;13.67;6.20;;;;;;;;;;5056534;28;20641;-28
2023/09/01 05:41:30;;;;;;;12.47;5.80;;;;;;;;;;5056476;28;20327;-29
2023/09/01 05:43:55;;;;;;;9.83;5.77;;;;;;;;;;5057006;28;20255;-29
2023/09/01 05:46:20;;;;;;;16.97;6.30;;;;;;;;;;5056407;28;20301;-29
2023/09/01 05:48:46;;;;;;;14.63;5.93;;;;;;;;;;5056882;28;20025;-29
2023/09/01 05:51:11;;;;;;;13.90;6.18;;;;;;;;;;5056296;28;20279;-28
2023/09/01 05:53:36;;;;;;;18.67;6.20;;;;;;;;;;5056176;28;20024;-29
2023/09/01 05:56:01;;;;;;;12.93;6.40;;;;;;;;;;5056727;28;20249;-29
2023/09/01 05:58:27;;;;;;;14.98;6.20;;;;;;;;;;5056432;28;20760;-29
2023/09/01 06:00:52;;;;;;;15.20;6.03;;;;;;;;;;5056394;28;20021;-29
2023/09/01 06:03:17;;;;;;;13.98;6.45;;;;;;;;;;5056025;28;20349;-29
2023/09/01 06:05:42;;;;;;;13.90;6.57;;;;;;;;;;5055936;28;20017;-29
2023/09/01 06:08:08;;;;;;;16.40;7.30;;;;;;;;;;5056043;28;20020;-29
2023/09/01 06:10:33;;;;;;;15.37;6.73;;;;;;;;;;5055851;28;20087;-29
2023/09/01 06:12:58;;;;;;;15.17;6.80;;;;;;;;;;5055660;28;20338;-29
2023/09/01 06:15:23;;;;;;;16.20;6.97;;;;;;;;;;5056167;28;20283;-29
2023/09/01 06:17:48;;;;;;;13.87;6.70;;;;;;;;;;5056385;28;20657;-28
2023/09/01 06:20:13;;;;;;;14.20;6.97;;;;;;;;;;5055120;28;20252;-29
2023/09/01 06:22:39;;;;;;;14.32;7.18;;;;;;;;;;5056097;28;20255;-29
2023/09/01 06:25:04;;;;;;;16.45;7.10;;;;;;;;;;5055409;28;20182;-29
2023/09/01 06:27:29;;;;;;;15.60;7.07;;;;;;;;;;5055451;28;20021;-29
2023/09/01 06:29:56;;;;;;;19.88;7.45;;;;;;;;;;5055284;28;20120;-29
2023/09/01 06:32:22;;;;;;;15.50;7.35;;;;;;;;;;5055234;28;20024;-29
2023/09/01 06:34:47;;;;;;;16.42;7.22;;;;;;;;;;5055272;28;20090;-29
2023/09/01 06:37:12;;;;;;;13.47;7.37;;;;;;;;;;5055251;28;20017;-29
2023/09/01 06:39:37;;;;;;;16.47;7.30;;;;;;;;;;5056039;28;20263;-29
2023/09/01 06:42:06;;;;;;;14.40;7.32;;;;;;;;;;5056469;28;20467;-29
2023/09/01 06:44:32;;;;;;;15.63;7.50;;;;;;;;;;5054126;28;20025;-28
2023/09/01 06:46:57;;;;;;;15.73;7.55;;;;;;;;;;5055981;28;20352;-28
2023/09/01 06:49:22;;;;;;;17.27;7.45;;;;;;;;;;5055486;28;20104;-29
2023/09/01 06:51:48;;;;;;;17.23;7.43;;;;;;;;;;5054817;28;20025;-28
2023/09/01 06:54:13;;;;;;;18.73;7.73;;;;;;;;;;5054538;28;20385;-29
2023/09/01 06:56:38;;;;;;;16.03;7.00;;;;;;;;;;5054478;28;20260;-29
2023/09/01 06:59:03;;;;;;;18.55;7.60;;;;;;;;;;5054667;28;20100;-29
2023/09/01 07:01:28;;;;;;;17.88;6.95;;;;;;;;;;5054604;28;20012;-29
2023/09/01 07:03:54;;;;;;;17.03;7.80;;;;;;;;;;5053018;28;20025;-29
2023/09/01 07:06:19;;;;;;;15.77;7.10;;;;;;;;;;5054337;28;20312;-29
2023/09/01 07:08:45;;;;;;;16.73;7.28;;;;;;;;;;5054724;28;20017;-29
2023/09/01 07:11:11;;;;;;;24.98;8.30;;;;;;;;;;5054815;28;20097;-28
2023/09/01 07:13:36;;;;;;;15.50;7.40;;;;;;;;;;5054766;28;20475;-29
2023/09/01 07:16:01;;;;;;;15.10;7.30;;;;;;;;;;5055021;28;20025;-29
2023/09/01 07:18:26;;;;;;;15.98;7.65;;;;;;;;;;5054786;28;20028;-29
2023/09/01 07:20:56;;;;;;;13.38;7.13;;;;;;;;;;5054737;28;20091;-29
2023/09/01 07:23:21;;;;;;;16.38;7.57;;;;;;;;;;5053188;28;20024;-29
2023/09/01 07:25:47;;;;;;;18.33;7.80;;;;;;;;;;5055488;28;20139;-28
2023/09/01 07:28:12;;;;;;;16.17;7.63;;;;;;;;;;5054972;28;20028;-29
2023/09/01 07:30:37;;;;;;;12.27;7.28;;;;;;;;;;5054165;28;20271;-28
2023/09/01 07:33:02;;;;;;;17.92;8.73;;;;;;;;;;5053915;28;20421;-29
2023/09/01 07:35:28;;;;;;;17.75;7.22;;;;;;;;;;5053942;28;20061;-29
2023/09/01 07:37:53;;;;;;;18.42;7.57;;;;;;;;;;5054348;28;20348;-29
2023/09/01 07:40:18;;;;;;;18.17;7.15;;;;;;;;;;5054048;28;20013;-29
2023/09/01 07:42:44;;;;;;;17.10;7.32;;;;;;;;;;5054030;28;20021;-29
2023/09/01 07:45:09;;;;;;;15.30;6.73;;;;;;;;;;5054508;28;20017;-29
2023/09/01 07:47:34;;;;;;;11.85;6.85;;;;;;;;;;5054382;28;20247;-29
2023/09/01 07:49:59;;;;;;;18.17;7.53;;;;;;;;;;5053972;28;20017;-29
2023/09/01 07:52:25;;;;;;;14.30;6.80;;;;;;;;;;5053750;28;20024;-29
2023/09/01 07:54:50;;;;;;;13.48;7.50;;;;;;;;;;5054189;28;20636;-29
2023/09/01 07:57:16;;;;;;;14.07;7.15;;;;;;;;;;5052657;28;20028;-29
2023/09/01 07:59:41;;;;;;;22.27;8.10;;;;;;;;;;5054032;28;20080;-29
2023/09/01 08:02:06;;;;;;;16.70;7.97;;;;;;;;;;5054014;28;20017;-30
2023/09/01 08:04:31;;;;;;;11.70;7.32;;;;;;;;;;5053966;28;20610;-29
2023/09/01 08:06:59;;;;;;;17.37;7.60;;;;;;;;;;5053741;28;20045;-28
2023/09/01 08:09:24;;;;;;;16.83;7.90;;;;;;;;;;5054092;28;20055;-28
2023/09/01 08:11:50;;;;;;;14.77;6.97;;;;;;;;;;5053567;28;20052;-28
2023/09/01 08:14:15;;;;;;;17.40;6.75;;;;;;;;;;5054120;28;20017;-28
2023/09/01 08:16:40;;;;;;;14.23;7.00;;;;;;;;;;5053912;28;20006;-28
2023/09/01 08:19:06;;;;;;;14.63;7.47;;;;;;;;;;5054015;28;20260;-28
2023/09/01 08:21:31;;;;;;;13.27;6.82;;;;;;;;;;5053418;28;20459;-28
2023/09/01 08:23:56;;;;;;;18.70;6.68;;;;;;;;;;5053424;28;20063;-29
2023/09/01 08:26:21;;;;;;;15.55;6.80;;;;;;;;;;5053981;28;20031;-29
2023/09/01 08:28:47;;;;;;;15.80;6.87;;;;;;;;;;5053417;28;20020;-28
2023/09/01 08:31:12;;;;;;;18.08;6.75;;;;;;;;;;5053761;28;20255;-28
2023/09/01 08:33:37;;;;;;;13.85;6.53;;;;;;;;;;5053377;28;20085;-28
2023/09/01 08:36:05;;;;;;;16.30;6.88;;;;;;;;;;5053627;28;20379;-29
2023/09/01 08:38:31;;;;;;;14.50;6.85;;;;;;;;;;5053520;28;20532;-29
2023/09/01 08:41:05;;;;;;;12.15;6.60;;;;;;;;;;5053526;28;20100;-28
2023/09/01 08:43:35;;;;;;;14.55;6.80;;;;;;;;;;5053406;28;20486;-29
2023/09/01 08:46:00;;;;;;;11.32;6.45;;;;;;;;;;5053239;28;20495;-28
2023/09/01 08:48:25;;;;;;;14.15;6.47;;;;;;;;;;5053165;28;20020;-28
2023/09/01 08:50:51;;;;;;;14.40;6.43;;;;;;;;;;5053717;28;20100;-28
2023/09/01 08:53:17;;;;;;;13.77;6.55;;;;;;;;;;5053338;28;20017;-29
2023/09/01 08:55:42;;;;;;;11.00;6.40;;;;;;;;;;5053442;28;20021;-29
2023/09/01 08:58:07;;;;;;;15.20;6.07;;;;;;;;;;5053324;28;20434;-28
2023/09/01 09:00:33;;;;;;;17.07;7.00;;;;;;;;;;5052858;28;20023;-29
2023/09/01 09:02:58;;;;;;;11.80;6.70;;;;;;;;;;5051942;28;20021;-28
2023/09/01 09:05:25;;;;;;;17.13;6.57;;;;;;;;;;5052727;28;20017;-29
2023/09/01 09:08:00;;;;;;;10.88;6.10;;;;;;;;;;5052372;28;20749;-29
2023/09/01 09:10:35;;;;;;;13.15;6.13;;;;;;;;;;5050860;28;20025;-27
2023/09/01 09:13:00;;;;;;;17.15;6.88;;;;;;;;;;5050712;28;20507;-28
2023/09/01 09:15:26;;;;;;;13.52;6.43;;;;;;;;;;5050769;28;20013;-28
2023/09/01 09:17:51;;;;;;;15.70;6.38;;;;;;;;;;5050522;28;20208;-28
2023/09/01 09:20:17;;;;;;;15.98;6.40;;;;;;;;;;5051027;28;20009;-29
2023/09/01 09:22:50;;;;;;;12.27;6.50;;;;;;;;;;5049329;28;20107;-29
2023/09/01 09:25:28;;;;;;;15.70;6.70;;;;;;;;;;5052600;28;20471;-29
2023/09/01 09:27:54;;;;;;;12.07;6.55;;;;;;;;;;5052824;28;20108;-29
2023/09/01 09:30:19;;;;;;;19.38;6.50;;;;;;;;;;5052667;28;20048;-29
2023/09/01 09:32:44;;;;;;;15.10;6.57;;;;;;;;;;5053146;28;20523;-29
2023/09/01 09:35:10;;;;;;;14.30;7.03;;;;;;;;;;5051767;28;20102;-29
2023/09/01 09:37:36;;;;;;;13.77;6.43;;;;;;;;;;5052700;28;20146;-29
2023/09/01 09:40:17;;;;;;;19.13;6.60;;;;;;;;;;5052874;28;20021;-29
2023/09/01 09:42:43;;;;;;;13.77;6.47;;;;;;;;;;5052607;28;20021;-29
2023/09/01 09:45:22;;;;;;;13.85;6.15;;;;;;;;;;5052962;28;20048;-30
2023/09/01 09:47:48;;;;;;;14.40;6.93;;;;;;;;;;5053025;28;20096;-29
2023/09/01 09:50:15;;;;;;;16.73;6.32;;;;;;;;;;5052939;28;20356;-30
2023/09/01 09:52:41;;;;;;;13.95;6.85;;;;;;;;;;5052886;28;20028;-29
2023/09/01 09:55:08;;;;;;;13.88;5.90;;;;;;;;;;5053332;28;20025;-29
2023/09/01 09:57:34;;;;;;;17.45;6.53;;;;;;;;;;5056507;28;20017;-29
2023/09/01 10:00:10;;;;;;;13.52;6.97;;;;;;;;;;5056692;28;20032;-29
2023/09/01 10:02:42;;;;;;;18.27;7.40;;;;;;;;;;5056295;28;20029;-29
2023/09/01 10:05:08;;;;;;;13.13;7.13;;;;;;;;;;5054669;28;20357;-29
2023/09/01 10:07:33;;;;;;;13.95;6.88;;;;;;;;;;5056169;28;20028;-29
2023/09/01 10:09:59;;;;;;;14.75;6.53;;;;;;;;;;5056353;28;20048;-29
2023/09/01 10:12:26;;;;;;;15.18;7.05;;;;;;;;;;5055968;28;20028;-29
2023/09/01 10:14:53;;;;;;;16.13;8.07;;;;;;;;;;5055659;28;20024;-28
2023/09/01 10:17:18;;;;;;;16.95;7.18;;;;;;;;;;5055713;28;20096;-28
2023/09/01 10:19:44;;;;;;;14.43;6.80;;;;;;;;;;5056164;28;20024;-28
2023/09/01 10:22:09;;;;;;;11.60;6.75;;;;;;;;;;5055638;28;20375;-28
2023/09/01 10:24:34;;;;;;;12.40;6.90;;;;;;;;;;5055863;28;20024;-29
2023/09/01 10:27:07;;;;;;;13.87;6.77;;;;;;;;;;5055623;28;20263;-29
2023/09/01 10:29:34;;;;;;;11.60;6.60;;;;;;;;;;5055672;28;20049;-29
2023/09/01 10:32:18;;;;;;;12.40;6.20;;;;;;;;;;5055513;28;20367;-29
2023/09/01 10:34:50;;;;;;;13.02;5.82;;;;;;;;;;5055364;28;20502;-29
2023/09/01 10:37:30;;;;;;;12.10;6.40;;;;;;;;;;5055377;28;20021;-29
2023/09/01 10:39:55;;;;;;;12.88;5.57;;;;;;;;;;5055284;28;20020;-29
2023/09/01 10:42:39;;;;;;;11.07;6.03;;;;;;;;;;5055152;28;20024;-28
2023/09/01 10:45:06;;;;;;;13.05;6.38;;;;;;;;;;5055291;28;20059;-29
2023/09/01 10:47:31;;;;;;;14.88;6.43;;;;;;;;;;5055631;28;20024;-29
2023/09/01 10:49:57;;;;;;;12.65;6.00;;;;;;;;;;5055187;28;20112;-29
2023/09/01 10:52:27;;;;;;;9.93;5.88;;;;;;;;;;5054734;28;20070;-29
2023/09/01 10:54:59;;;;;;;14.23;6.30;;;;;;;;;;5054671;28;20029;-29
2023/09/01 10:57:37;;;;;;;11.48;6.07;;;;;;;;;;5054385;28;20028;-29
2023/09/01 11:00:22;;;;;;;13.07;5.97;;;;;;;;;;5053116;28;20032;-29
2023/09/01 11:02:48;;;;;;;8.98;5.25;;;;;;;;;;5054001;28;20431;-29
2023/09/01 11:05:33;;;;;;;11.93;5.97;;;;;;;;;;5051041;28;20056;-29
2023/09/01 11:08:08;;;;;;;10.27;5.68;;;;;;;;;;5052128;28;20032;-29
2023/09/01 11:10:33;;;;;;;13.75;5.72;;;;;;;;;;5053679;28;20379;-30
2023/09/01 11:12:58;;;;;;;14.77;5.97;;;;;;;;;;5053597;28;20028;-29
2023/09/01 11:15:23;;;;;;;9.37;5.90;;;;;;;;;;5053498;28;20106;-28
2023/09/01 11:17:49;;;;;;;12.32;6.05;;;;;;;;;;5053849;28;20722;-29
2023/09/01 11:20:19;;;;;;;9.55;5.75;;;;;;;;;;5054504;28;20098;-29
2023/09/01 11:22:44;;;;;;;11.40;6.35;;;;;;;;;;5054454;28;20021;-29
2023/09/01 11:25:11;;;;;;;12.68;6.60;;;;;;;;;;5054750;28;20109;-29
2023/09/01 11:27:40;;;;;;;13.05;6.30;;;;;;;;;;5054697;28;20017;-29
2023/09/01 11:30:06;;;;;;;10.88;5.72;;;;;;;;;;5054294;28;20078;-29
2023/09/01 11:32:31;;;;;;;12.75;6.13;;;;;;;;;;5054096;28;20586;-29
2023/09/01 11:34:57;;;;;;;11.98;6.05;;;;;;;;;;5054092;28;20075;-29
2023/09/01 11:37:41;;;;;;;17.00;6.03;;;;;;;;;;5054736;28;20024;-30
2023/09/01 11:40:08;;;;;;;10.38;6.00;;;;;;;;;;5054690;28;20024;-29
2023/09/01 11:42:35;;;;;;;9.70;5.82;;;;;;;;;;5054305;28;20024;-29
2023/09/01 11:45:02;;;;;;;14.80;6.45;;;;;;;;;;5054619;28;20057;-29
2023/09/01 11:47:28;;;;;;;10.45;5.90;;;;;;;;;;5054434;28;20024;-29
2023/09/01 11:49:53;;;;;;;9.05;5.88;;;;;;;;;;5053050;28;20024;-29
2023/09/01 11:52:19;;;;;;;8.82;5.85;;;;;;;;;;5053804;28;20017;-29
2023/09/01 11:54:44;;;;;;;12.00;6.13;;;;;;;;;;5053941;28;20456;-30
2023/09/01 11:57:12;;;;;;;10.97;5.90;;;;;;;;;;5052871;28;20331;-29
2023/09/01 11:59:43;;;;;;;11.75;6.60;;;;;;;;;;5053766;28;20579;-29
2023/09/01 12:02:09;;;;;;;13.40;5.90;;;;;;;;;;5053755;28;20017;-29
2023/09/01 12:04:43;;;;;;;11.10;5.90;;;;;;;;;;5053678;28;20029;-29
2023/09/01 12:07:08;;;;;;;11.20;6.43;;;;;;;;;;5054178;28;20056;-29
2023/09/01 12:09:34;;;;;;;11.30;5.67;;;;;;;;;;5053532;28;20475;-29
2023/09/01 12:12:00;;;;;;;11.80;5.90;;;;;;;;;;5053348;28;20307;-29
2023/09/01 12:14:26;;;;;;;9.77;6.03;;;;;;;;;;5053995;28;20295;-29
2023/09/01 12:16:53;;;;;;;9.32;5.63;;;;;;;;;;5053572;28;20020;-30
2023/09/01 12:19:20;;;;;;;10.13;6.05;;;;;;;;;;5053181;28;20053;-29
2023/09/01 12:21:45;;;;;;;10.20;5.82;;;;;;;;;;5053814;28;20071;-29
2023/09/01 12:24:10;;;;;;;11.20;5.67;;;;;;;;;;5053898;28;20017;-29
2023/09/01 12:26:35;;;;;;;15.57;6.07;;;;;;;;;;5053509;28;20468;-27
2023/09/01 12:29:01;;;;;;;8.37;5.10;;;;;;;;;;5053316;28;20024;-28
2023/09/01 12:31:26;;;;;;;12.83;6.27;;;;;;;;;;5053790;28;20021;-29
2023/09/01 12:33:51;;;;;;;11.33;5.77;;;;;;;;;;5053005;28;20049;-28
2023/09/01 12:36:16;;;;;;;10.73;5.97;;;;;;;;;;5053165;28;20024;-28
2023/09/01 12:38:43;;;;;;;9.73;5.43;;;;;;;;;;5053459;28;20255;-29
2023/09/01 12:41:08;;;;;;;12.35;5.40;;;;;;;;;;5053431;28;20371;-28
2023/09/01 12:43:33;;;;;;;9.23;5.47;;;;;;;;;;5053687;28;20100;-28
2023/09/01 12:45:59;;;;;;;8.30;4.87;;;;;;;;;;5053693;28;20017;-28
2023/09/01 12:48:24;;;;;;;12.47;5.50;;;;;;;;;;5053658;28;20029;-28
2023/09/01 12:50:49;;;;;;;11.10;5.37;;;;;;;;;;5053109;28;20267;-28
2023/09/01 12:53:15;;;;;;;13.18;5.93;;;;;;;;;;5053394;28;20279;-28
2023/09/01 12:55:41;;;;;;;9.77;5.50;;;;;;;;;;5053679;28;20101;-28
2023/09/01 12:58:06;;;;;;;13.45;5.60;;;;;;;;;;5053199;28;20020;-29
2023/09/01 13:00:31;;;;;;;10.70;5.43;;;;;;;;;;5053147;28;20036;-28
2023/09/01 13:02:57;;;;;;;8.50;5.50;;;;;;;;;;5052934;28;20262;-28
2023/09/01 13:05:22;;;;;;;10.02;5.68;;;;;;;;;;5053008;28;20032;-28
2023/09/01 13:07:48;;;;;;;12.88;5.60;;;;;;;;;;5053203;28;20483;-28
2023/09/01 13:10:17;;;;;;;9.00;5.15;;;;;;;;;;5053334;28;20486;-29
2023/09/01 13:12:43;;;;;;;10.82;5.78;;;;;;;;;;5053387;28;20133;-28
2023/09/01 13:15:09;;;;;;;11.23;5.97;;;;;;;;;;5053510;28;20044;-28
2023/09/01 13:17:35;;;;;;;12.35;5.65;;;;;;;;;;5052855;28;20029;-28
2023/09/01 13:20:01;;;;;;;11.43;5.63;;;;;;;;;;5052448;28;20371;-28
2023/09/01 13:22:26;;;;;;;11.70;6.10;;;;;;;;;;5052356;28;20507;-28
2023/09/01 13:24:52;;;;;;;11.48;5.68;;;;;;;;;;5052473;28;20021;-29
2023/09/01 13:27:17;;;;;;;9.25;5.28;;;;;;;;;;5052408;28;20047;-28
2023/09/01 13:29:42;;;;;;;12.75;5.65;;;;;;;;;;5052203;28;20087;-28
2023/09/01 13:32:08;;;;;;;10.20;5.37;;;;;;;;;;5055887;28;20494;-28
2023/09/01 13:34:33;;;;;;;9.63;5.17;;;;;;;;;;5056399;28;20287;-28
2023/09/01 13:36:58;;;;;;;11.57;5.17;;;;;;;;;;5057144;28;20071;-28
2023/09/01 13:39:23;;;;;;;9.00;5.00;;;;;;;;;;5056529;28;20017;-29
2023/09/01 13:41:48;;;;;;;8.97;5.03;;;;;;;;;;5057060;28;20092;-36
2023/09/01 13:44:14;;;;;;;9.40;4.90;;;;;;;;;;5056585;28;20009;-29
2023/09/01 13:46:39;;;;;;;9.43;4.67;;;;;;;;;;5056411;28;20262;-29
2023/09/01 13:49:07;;;;;;;7.68;4.40;;;;;;;;;;5056550;28;20268;-29
2023/09/01 13:51:32;;;;;;;11.43;4.68;;;;;;;;;;5056311;28;20029;-29
2023/09/01 13:53:57;;;;;;;9.40;5.10;;;;;;;;;;5056483;28;20028;-29
2023/09/01 13:56:23;;;;;;;9.43;4.40;;;;;;;;;;5056047;28;20048;-29
2023/09/01 13:58:48;;;;;;;7.72;4.90;;;;;;;;;;5056222;28;20459;-29
2023/09/01 14:01:14;;;;;;;8.48;4.70;;;;;;;;;;5056671;28;20056;-29
2023/09/01 14:03:39;;;;;;;10.40;4.93;;;;;;;;;;5056403;28;20013;-29
2023/09/01 14:06:05;;;;;;;12.10;5.30;;;;;;;;;;5056010;28;20063;-29
2023/09/01 14:08:30;;;;;;;10.17;5.33;;;;;;;;;;5056074;28;20430;-29
2023/09/01 14:10:56;;;;;;;10.93;5.22;;;;;;;;;;5055985;28;20278;-29
2023/09/01 14:13:21;;;;;;;10.50;5.20;;;;;;;;;;5056153;28;20016;-29
2023/09/01 14:15:47;;;;;;;10.10;5.10;;;;;;;;;;5056410;28;20019;-29
2023/09/01 14:18:13;;;;;;;9.32;5.32;;;;;;;;;;5055837;28;20360;-29
2023/09/01 14:20:38;;;;;;;10.07;4.97;;;;;;;;;;5054488;28;20024;-29
2023/09/01 14:23:03;;;;;;;10.37;5.77;;;;;;;;;;5056328;28;20028;-28
2023/09/01 14:25:28;;;;;;;10.40;5.43;;;;;;;;;;5056223;28;20248;-28
2023/09/01 14:27:53;;;;;;;8.43;5.83;;;;;;;;;;5055572;28;20025;-29